Bonanza, Idaho
Current Conditions -  °F | °C
As of 8:55 PM on Sunday 23 Nov 2014 (Local Time) from KLLJ Reporting Station
Overcast Overcast  
Wind Chill: 26°   Ceiling: 6000
Heat Index: 31°   Visibility: 10mi
Dew Point: 20°   Wind: 5mph
Humidity: 64%   Direction: 200°SSW
Pressure: 30.03"   Gusts: NA
Location:  44.3379°N, 114.824°W
Report Text: KLLJ 240355Z AUTO 20004KT 10SM OVC060 M01/M07 A3003 RMK AO2 SLP197 T10061067 $
Loading
Personal Weather Stations






























Interactive Weather Map New forecast layout! Learn more

10-Day Weather Forecast

Advertisements
Track Severe Weather on mobile